Time;durP1;ratioP1;P1;durP2;ratioP2;P2;SDS_P1;SDS_P2;PMS_P1;PMS_P2;Temp;Humidity;BMP_temperature;BMP_pressure;BME280_temperature;BME280_humidity;BME280_pressure;Samples;Min_cycle;Max_cycle;Signal;HPM_P1;HPM_P2
2022/10/09 00:00:25;;;;;;;23.08;4.53;;;5.20;99.90;;;;;;5026474;28;20090;-64
2022/10/09 00:02:50;;;;;;;9.77;4.13;;;5.20;99.90;;;;;;5028140;28;20036;-64
2022/10/09 00:05:16;;;;;;;12.70;4.22;;;5.10;99.90;;;;;;5015309;28;20025;-65
2022/10/09 00:07:42;;;;;;;15.98;5.22;;;5.10;99.90;;;;;;5011617;28;20053;-64
2022/10/09 00:10:07;;;;;;;7.97;4.20;;;5.10;99.90;;;;;;5018210;28;20496;-64
2022/10/09 00:12:33;;;;;;;7.50;4.82;;;5.10;99.90;;;;;;5014037;28;20108;-64
2022/10/09 00:14:58;;;;;;;13.48;5.05;;;5.20;99.90;;;;;;5013893;28;20509;-64
2022/10/09 00:17:24;;;;;;;14.82;4.82;;;5.20;99.90;;;;;;5019695;28;20507;-65
2022/10/09 00:19:50;;;;;;;10.60;5.10;;;5.20;99.90;;;;;;5021228;28;20040;-64
2022/10/09 00:22:15;;;;;;;14.18;4.80;;;5.20;99.90;;;;;;5019071;28;20025;-64
2022/10/09 00:24:42;;;;;;;16.42;5.40;;;5.20;99.90;;;;;;5021554;28;20037;-64
2022/10/09 00:27:07;;;;;;;17.27;4.85;;;5.20;99.90;;;;;;5018755;28;20513;-64
2022/10/09 00:29:33;;;;;;;8.63;4.35;;;5.20;99.90;;;;;;5021289;28;20025;-64
2022/10/09 00:31:58;;;;;;;11.50;4.55;;;5.10;99.90;;;;;;5019726;28;20113;-65
2022/10/09 00:34:24;;;;;;;10.88;4.32;;;5.00;99.90;;;;;;5024222;28;20507;-65
2022/10/09 00:36:49;;;;;;;11.68;4.60;;;5.00;99.90;;;;;;5018188;28;20145;-64
2022/10/09 00:39:15;;;;;;;8.77;5.28;;;5.00;99.90;;;;;;5021931;28;20037;-64
2022/10/09 00:41:41;;;;;;;10.48;4.45;;;5.00;99.90;;;;;;5025476;28;20056;-64
2022/10/09 00:44:44;;;;;;;10.32;5.03;;;4.90;99.90;;;;;;5022299;28;20032;-64
2022/10/09 00:47:18;;;;;;;14.70;4.60;;;4.90;99.90;;;;;;5026716;28;20389;-65
2022/10/09 00:49:44;;;;;;;14.52;5.00;;;4.80;99.90;;;;;;5021450;28;20470;-64
2022/10/09 00:52:10;;;;;;;13.02;5.25;;;4.70;99.90;;;;;;5012751;28;20030;-65
2022/10/09 00:54:38;;;;;;;7.50;4.22;;;4.80;99.90;;;;;;5027414;28;20029;-65
2022/10/09 00:57:04;;;;;;;12.65;6.28;;;4.90;99.90;;;;;;5023233;28;20061;-64
2022/10/09 00:59:30;;;;;;;16.33;4.65;;;5.00;99.90;;;;;;5019602;28;20062;-62
2022/10/09 01:01:56;;;;;;;10.98;4.68;;;5.10;99.90;;;;;;5016295;28;20588;-65
2022/10/09 01:04:22;;;;;;;14.32;4.97;;;5.10;99.90;;;;;;5018316;28;20170;-64
2022/10/09 01:07:10;;;;;;;9.02;4.57;;;5.00;99.90;;;;;;5018208;28;20097;-64
2022/10/09 01:09:41;;;;;;;12.00;4.30;;;5.10;99.90;;;;;;5019794;28;20452;-64
2022/10/09 01:12:24;;;;;;;7.43;4.55;;;5.00;99.90;;;;;;5024956;28;20445;-64
2022/10/09 01:15:02;;;;;;;12.30;4.60;;;5.00;99.90;;;;;;5023882;28;20512;-65
2022/10/09 01:17:52;;;;;;;8.70;4.63;;;4.90;99.90;;;;;;5020918;28;20068;-63
2022/10/09 01:20:36;;;;;;;15.18;5.30;;;4.90;99.90;;;;;;5017069;28;20036;-64
2022/10/09 01:23:30;;;;;;;14.10;4.30;;;4.90;99.90;;;;;;5014784;28;20113;-64
2022/10/09 01:26:00;;;;;;;11.82;4.80;;;4.90;99.90;;;;;;5016245;28;20123;-64
2022/10/09 01:28:27;;;;;;;10.63;4.22;;;4.80;99.90;;;;;;5021012;28;20031;-64
2022/10/09 01:31:00;;;;;;;9.70;4.72;;;4.80;99.90;;;;;;5024877;28;20076;-64
2022/10/09 01:33:27;;;;;;;10.23;4.75;;;4.70;99.90;;;;;;5025751;28;20684;-65
2022/10/09 01:35:53;;;;;;;11.48;4.65;;;4.70;99.90;;;;;;5028411;28;20033;-65
2022/10/09 01:38:22;;;;;;;11.35;5.20;;;4.60;99.90;;;;;;5017673;28;20022;-64
2022/10/09 01:40:49;;;;;;;8.75;4.53;;;4.70;99.90;;;;;;5017852;28;20433;-64
2022/10/09 01:43:15;;;;;;;8.52;5.30;;;4.70;99.90;;;;;;5024501;28;20030;-64
2022/10/09 01:45:44;;;;;;;10.32;4.97;;;4.60;99.90;;;;;;5029487;28;20021;-65
2022/10/09 01:48:22;;;;;;;11.38;5.03;;;4.70;99.90;;;;;;5032960;28;20033;-65
2022/10/09 01:50:55;;;;;;;15.15;4.93;;;4.80;99.90;;;;;;5026595;28;20049;-64
2022/10/09 01:53:23;;;;;;;8.93;4.60;;;4.70;99.90;;;;;;5029462;28;20025;-66
2022/10/09 01:56:01;;;;;;;10.48;5.03;;;4.70;99.90;;;;;;5033660;28;20824;-65
2022/10/09 01:58:49;;;;;;;9.63;4.60;;;4.60;99.90;;;;;;5028509;28;20045;-65
2022/10/09 02:01:19;;;;;;;10.70;5.03;;;4.50;99.90;;;;;;5029629;28;20104;-65
2022/10/09 02:03:49;;;;;;;9.93;4.85;;;4.40;99.90;;;;;;5031944;28;20029;-65
2022/10/09 02:06:16;;;;;;;10.68;5.15;;;4.30;99.90;;;;;;5024459;28;20033;-65
2022/10/09 02:08:44;;;;;;;12.57;4.88;;;4.30;99.90;;;;;;5024743;28;20014;-65
2022/10/09 02:11:13;;;;;;;13.05;5.03;;;4.40;99.90;;;;;;5017100;28;20044;-65
2022/10/09 02:13:39;;;;;;;9.15;5.25;;;4.40;99.90;;;;;;5021201;28;20022;-65
2022/10/09 02:16:20;;;;;;;12.10;4.97;;;4.50;99.90;;;;;;5021652;28;20555;-64
2022/10/09 02:18:55;;;;;;;14.07;5.97;;;4.40;99.90;;;;;;5029157;28;20026;-65
2022/10/09 02:21:25;;;;;;;11.98;5.20;;;4.40;99.90;;;;;;5029268;28;20056;-65
2022/10/09 02:23:53;;;;;;;12.45;5.80;;;4.40;99.90;;;;;;5022016;28;20116;-65
2022/10/09 02:26:18;;;;;;;14.52;5.93;;;4.40;99.90;;;;;;5022204;28;20029;-65
2022/10/09 02:28:44;;;;;;;7.75;4.60;;;4.30;99.90;;;;;;5023867;28;20049;-65
2022/10/09 02:31:25;;;;;;;11.98;5.88;;;4.30;99.90;;;;;;5024435;28;20021;-64
2022/10/09 02:33:59;;;;;;;11.65;5.55;;;4.20;99.90;;;;;;5024735;28;20025;-66
2022/10/09 02:36:25;;;;;;;13.50;5.47;;;4.20;99.90;;;;;;5024026;28;20066;-65
2022/10/09 02:38:51;;;;;;;17.77;5.60;;;4.10;99.90;;;;;;5026725;28;20080;-66
2022/10/09 02:41:17;;;;;;;14.27;5.25;;;4.10;99.90;;;;;;5025423;28;20026;-65
2022/10/09 02:43:42;;;;;;;8.85;6.10;;;4.10;99.90;;;;;;5027192;28;20091;-65
2022/10/09 02:46:08;;;;;;;19.42;5.45;;;4.10;99.90;;;;;;5024674;28;20018;-65
2022/10/09 02:48:33;;;;;;;9.45;5.38;;;4.10;99.90;;;;;;5026141;28;20018;-65
2022/10/09 02:51:00;;;;;;;12.35;5.38;;;4.00;99.90;;;;;;5027776;28;20029;-65
2022/10/09 02:53:26;;;;;;;29.00;5.82;;;4.00;99.90;;;;;;5029365;28;20022;-65
2022/10/09 02:55:51;;;;;;;9.32;4.50;;;4.00;99.90;;;;;;5031659;28;20392;-65
2022/10/09 02:58:17;;;;;;;9.80;5.03;;;4.00;99.90;;;;;;5015344;28;20030;-65
2022/10/09 03:00:46;;;;;;;9.50;5.10;;;4.00;99.90;;;;;;5023734;28;20034;-65
2022/10/09 03:03:12;;;;;;;12.27;5.65;;;3.90;99.90;;;;;;5023957;28;20443;-65
2022/10/09 03:05:37;;;;;;;11.10;5.32;;;3.80;99.90;;;;;;5026065;28;20022;-65
2022/10/09 03:08:03;;;;;;;16.70;5.22;;;3.80;99.90;;;;;;5027788;28;20033;-65
2022/10/09 03:10:28;;;;;;;10.77;5.68;;;3.80;99.90;;;;;;5028358;28;20026;-65
2022/10/09 03:12:54;;;;;;;11.52;5.85;;;3.80;99.90;;;;;;5011992;28;20056;-65
2022/10/09 03:15:19;;;;;;;12.98;5.97;;;3.90;99.90;;;;;;5021135;28;20485;-64
2022/10/09 03:17:45;;;;;;;14.48;5.18;;;3.90;99.90;;;;;;5020773;28;20041;-65
2022/10/09 03:20:11;;;;;;;14.10;5.82;;;3.90;99.90;;;;;;5017942;28;20026;-65
2022/10/09 03:22:37;;;;;;;13.90;5.65;;;3.80;99.90;;;;;;5017182;28;20026;-65
2022/10/09 03:25:02;;;;;;;11.32;5.47;;;3.80;99.90;;;;;;5024466;28;20021;-65
2022/10/09 03:27:29;;;;;;;20.17;6.40;;;3.80;99.90;;;;;;5027024;28;20022;-65
2022/10/09 03:29:56;;;;;;;9.95;5.75;;;3.70;99.90;;;;;;5016091;28;20105;-65
2022/10/09 03:32:22;;;;;;;11.05;5.85;;;3.70;99.90;;;;;;5016409;28;20547;-65
2022/10/09 03:34:47;;;;;;;7.93;5.10;;;3.70;99.90;;;;;;5022153;28;20030;-65
2022/10/09 03:37:13;;;;;;;11.95;5.43;;;3.70;99.90;;;;;;5012132;28;20113;-65
2022/10/09 03:39:38;;;;;;;11.07;5.85;;;3.80;99.90;;;;;;5024545;28;20059;-65
2022/10/09 03:42:04;;;;;;;13.68;5.80;;;3.70;99.90;;;;;;5015393;28;20025;-65
2022/10/09 03:44:29;;;;;;;11.10;5.22;;;3.70;99.90;;;;;;5024743;28;20490;-65
2022/10/09 03:46:55;;;;;;;10.48;5.85;;;3.70;99.90;;;;;;5024998;28;20041;-65
2022/10/09 03:49:20;;;;;;;11.15;5.80;;;3.80;99.90;;;;;;5020642;28;20024;-66
2022/10/09 03:51:46;;;;;;;10.73;5.85;;;3.90;99.90;;;;;;5018750;28;20088;-65
2022/10/09 03:54:12;;;;;;;11.02;5.43;;;3.90;99.90;;;;;;5023696;28;20030;-65
2022/10/09 03:56:37;;;;;;;15.05;6.30;;;4.10;99.90;;;;;;5027145;28;20026;-65
2022/10/09 03:59:04;;;;;;;11.45;5.72;;;4.20;99.90;;;;;;5023721;28;20504;-65
2022/10/09 04:01:30;;;;;;;12.90;5.70;;;4.20;99.90;;;;;;5028476;28;20032;-65
2022/10/09 04:03:56;;;;;;;11.60;5.45;;;4.20;99.90;;;;;;5023988;28;20025;-65
2022/10/09 04:06:21;;;;;;;12.55;5.32;;;4.10;99.90;;;;;;5023813;28;20049;-65
2022/10/09 04:08:47;;;;;;;12.73;6.18;;;4.10;99.90;;;;;;5028522;28;20029;-65
2022/10/09 04:11:12;;;;;;;12.38;6.05;;;4.10;99.90;;;;;;5029082;28;20026;-65
2022/10/09 04:13:38;;;;;;;10.52;5.35;;;4.10;99.90;;;;;;5027246;28;20050;-65
2022/10/09 04:16:04;;;;;;;7.55;4.80;;;4.20;99.90;;;;;;5018335;28;20033;-65
2022/10/09 04:18:29;;;;;;;16.83;6.28;;;4.10;99.90;;;;;;5028966;28;20558;-65
2022/10/09 04:20:56;;;;;;;15.52;5.88;;;4.10;99.90;;;;;;5029558;28;20028;-65
2022/10/09 04:23:24;;;;;;;15.73;5.32;;;4.10;99.90;;;;;;5020671;28;20026;-65
2022/10/09 04:25:54;;;;;;;12.00;5.38;;;4.10;99.90;;;;;;5018650;28;20025;-66
2022/10/09 04:28:20;;;;;;;11.45;5.07;;;4.00;99.90;;;;;;5021531;28;20029;-65
2022/10/09 04:30:46;;;;;;;13.52;5.50;;;4.00;99.90;;;;;;5014242;28;20071;-66
2022/10/09 04:33:11;;;;;;;12.13;4.95;;;4.00;99.90;;;;;;5023245;28;20399;-65
2022/10/09 04:35:44;;;;;;;9.90;4.90;;;4.00;99.90;;;;;;5030575;28;20507;-64
2022/10/09 04:38:10;;;;;;;10.25;4.60;;;4.00;99.90;;;;;;5027274;28;20029;-65
2022/10/09 04:40:36;;;;;;;10.73;4.75;;;4.00;99.90;;;;;;5009071;28;20076;-65
2022/10/09 04:43:01;;;;;;;10.55;4.85;;;4.00;99.90;;;;;;5018740;28;20413;-65
2022/10/09 04:45:27;;;;;;;15.13;4.88;;;4.00;99.90;;;;;;5021060;28;20476;-65
2022/10/09 04:47:53;;;;;;;7.57;4.72;;;4.00;99.90;;;;;;5022534;28;20026;-66
2022/10/09 04:50:18;;;;;;;8.68;4.43;;;4.00;99.90;;;;;;5022970;28;20492;-65
2022/10/09 04:52:44;;;;;;;8.50;4.18;;;4.00;99.90;;;;;;5025921;28;20041;-65
2022/10/09 04:55:09;;;;;;;13.82;5.38;;;4.00;99.90;;;;;;5020906;28;20021;-66
2022/10/09 04:57:35;;;;;;;11.63;4.40;;;3.90;99.90;;;;;;5025897;28;20026;-65
2022/10/09 05:00:00;;;;;;;12.45;5.10;;;3.90;99.90;;;;;;5027508;28;20069;-65
2022/10/09 05:02:26;;;;;;;9.02;4.60;;;3.90;99.90;;;;;;5027690;28;20041;-64
2022/10/09 05:04:51;;;;;;;11.95;4.50;;;3.90;99.90;;;;;;5017088;28;20052;-65
2022/10/09 05:07:17;;;;;;;8.80;4.85;;;3.80;99.90;;;;;;5030183;28;20017;-65
2022/10/09 05:09:42;;;;;;;8.68;4.68;;;3.80;99.90;;;;;;5018685;28;20051;-64
2022/10/09 05:12:08;;;;;;;6.68;4.22;;;3.80;99.90;;;;;;5015871;28;20021;-65
2022/10/09 05:14:34;;;;;;;12.10;4.40;;;3.80;99.90;;;;;;5021519;28;20030;-65
2022/10/09 05:17:03;;;;;;;9.02;4.53;;;3.80;99.90;;;;;;5019083;28;20104;-64
2022/10/09 05:19:31;;;;;;;13.07;4.93;;;3.80;99.90;;;;;;5022371;28;20026;-65
2022/10/09 05:21:56;;;;;;;8.98;4.72;;;3.80;99.90;;;;;;5022733;28;20160;-65
2022/10/09 05:24:22;;;;;;;12.70;4.30;;;3.80;99.90;;;;;;5023226;28;20025;-64
2022/10/09 05:26:47;;;;;;;9.43;4.13;;;3.90;99.90;;;;;;5028169;28;20045;-65
2022/10/09 05:29:13;;;;;;;8.23;5.10;;;3.80;99.90;;;;;;5018502;28;20040;-65
2022/10/09 05:31:39;;;;;;;11.18;5.28;;;3.80;99.90;;;;;;5024910;28;20493;-65
2022/10/09 05:34:04;;;;;;;11.45;4.50;;;3.70;99.90;;;;;;5013579;28;20492;-65
2022/10/09 05:36:30;;;;;;;9.50;4.60;;;3.70;99.90;;;;;;5020129;28;20033;-65
2022/10/09 05:38:56;;;;;;;13.90;5.20;;;3.70;99.90;;;;;;5024654;28;20037;-65
2022/10/09 05:41:22;;;;;;;10.90;4.75;;;3.70;99.90;;;;;;5024724;28;20026;-65
2022/10/09 05:43:49;;;;;;;10.45;4.43;;;3.80;99.90;;;;;;5026653;28;20163;-65
2022/10/09 05:46:16;;;;;;;8.68;4.32;;;3.80;99.90;;;;;;5023592;28;20101;-65
2022/10/09 05:48:44;;;;;;;11.07;4.88;;;3.90;99.90;;;;;;5017167;28;20033;-65
2022/10/09 05:51:32;;;;;;;11.20;4.32;;;3.90;99.90;;;;;;5020522;28;20021;-65
2022/10/09 05:54:00;;;;;;;12.52;5.25;;;3.80;99.90;;;;;;5009941;28;20042;-65
2022/10/09 05:56:27;;;;;;;15.18;4.68;;;3.70;99.90;;;;;;5020387;28;20018;-65
2022/10/09 05:58:55;;;;;;;13.02;5.25;;;3.70;99.90;;;;;;5029261;28;20041;-65
2022/10/09 06:01:22;;;;;;;7.15;4.18;;;3.70;99.90;;;;;;5034843;28;20030;-65
2022/10/09 06:03:53;;;;;;;12.68;4.93;;;3.70;99.90;;;;;;5015253;28;20025;-65
2022/10/09 06:06:21;;;;;;;9.35;4.32;;;3.70;99.90;;;;;;5011758;28;20025;-65
2022/10/09 06:08:48;;;;;;;10.23;4.68;;;3.80;99.90;;;;;;5009960;28;20579;-65
2022/10/09 06:11:18;;;;;;;15.00;5.05;;;3.80;99.90;;;;;;5017187;28;20021;-65
2022/10/09 06:13:45;;;;;;;8.48;4.70;;;3.90;99.90;;;;;;5024210;28;20101;-65
2022/10/09 06:16:12;;;;;;;15.20;4.53;;;4.00;99.90;;;;;;5023815;28;20017;-65
2022/10/09 06:18:40;;;;;;;11.63;5.00;;;4.20;99.90;;;;;;5025641;28;20392;-65
2022/10/09 06:21:06;;;;;;;9.35;4.22;;;4.30;99.90;;;;;;5026385;28;20070;-65
2022/10/09 06:23:32;;;;;;;7.90;4.05;;;4.50;99.90;;;;;;5022270;28;20042;-64
2022/10/09 06:26:05;;;;;;;16.20;4.43;;;4.50;99.90;;;;;;5012229;28;20026;-65
2022/10/09 06:28:33;;;;;;;9.75;4.90;;;4.60;99.90;;;;;;5020821;28;20040;-65
2022/10/09 06:31:14;;;;;;;14.65;4.95;;;4.70;99.90;;;;;;5010452;28;20072;-65
2022/10/09 06:33:41;;;;;;;16.08;5.03;;;4.70;99.90;;;;;;5027006;28;20180;-65
2022/10/09 06:36:12;;;;;;;17.90;4.38;;;4.80;99.90;;;;;;5025279;28;20038;-65
2022/10/09 06:38:39;;;;;;;16.13;4.30;;;4.90;99.90;;;;;;5026265;28;20028;-65
2022/10/09 06:41:13;;;;;;;13.63;4.60;;;5.00;99.90;;;;;;5022247;28;20040;-65
2022/10/09 06:43:39;;;;;;;15.00;4.40;;;5.00;99.90;;;;;;5020894;28;20109;-65
2022/10/09 06:46:11;;;;;;;24.70;9.48;;;5.10;99.90;;;;;;5020419;28;20033;-65
2022/10/09 06:48:38;;;;;;;9.77;4.60;;;5.20;99.90;;;;;;5023249;28;20033;-64
2022/10/09 06:51:10;;;;;;;8.55;3.95;;;5.40;99.90;;;;;;5023294;28;20022;-64
2022/10/09 06:53:38;;;;;;;7.50;3.30;;;5.50;99.90;;;;;;5027266;28;20022;-65
2022/10/09 06:56:04;;;;;;;9.05;3.60;;;5.70;99.90;;;;;;5021291;28;20046;-65
2022/10/09 06:58:30;;;;;;;5.22;3.17;;;5.80;99.90;;;;;;5019146;28;20452;-64
2022/10/09 07:01:07;;;;;;;5.38;2.90;;;5.90;99.90;;;;;;5026877;28;20045;-65
2022/10/09 07:03:34;;;;;;;11.88;3.53;;;6.00;99.90;;;;;;5021915;28;20037;-65
2022/10/09 07:06:08;;;;;;;6.47;2.72;;;6.10;99.90;;;;;;5026011;28;20046;-64
2022/10/09 07:08:35;;;;;;;10.45;4.47;;;6.20;99.90;;;;;;5027406;28;20455;-65
2022/10/09 07:11:10;;;;;;;18.63;5.15;;;6.30;99.90;;;;;;5026462;28;20493;-64
2022/10/09 07:13:36;;;;;;;14.00;4.88;;;6.50;99.90;;;;;;5014329;28;20029;-64
2022/10/09 07:16:01;;;;;;;39.30;11.38;;;6.50;99.90;;;;;;5018412;28;20451;-65
2022/10/09 07:18:27;;;;;;;28.27;7.60;;;6.60;99.90;;;;;;5023957;28;20075;-65
2022/10/09 07:20:53;;;;;;;10.52;3.70;;;6.70;99.90;;;;;;5026373;28;20057;-65
2022/10/09 07:23:18;;;;;;;19.27;5.95;;;6.80;99.90;;;;;;5022264;28;20483;-65
2022/10/09 07:25:44;;;;;;;9.82;5.00;;;6.90;99.90;;;;;;5023062;28;20038;-65
2022/10/09 07:28:09;;;;;;;8.48;3.90;;;7.00;99.90;;;;;;5022115;28;20036;-65
2022/10/09 07:30:38;;;;;;;8.18;2.90;;;7.00;99.90;;;;;;5019733;28;20114;-65
2022/10/09 07:33:03;;;;;;;12.48;5.10;;;7.10;99.90;;;;;;5021092;28;20142;-65
2022/10/09 07:35:29;;;;;;;8.02;3.45;;;7.20;99.90;;;;;;5025458;28;20475;-65
2022/10/09 07:37:54;;;;;;;5.55;3.40;;;7.20;99.90;;;;;;5024248;28;20029;-65
2022/10/09 07:40:20;;;;;;;9.18;3.75;;;7.30;99.90;;;;;;5027584;28;20041;-65
2022/10/09 07:42:46;;;;;;;6.80;2.70;;;7.40;99.90;;;;;;5018212;28;20030;-65
2022/10/09 07:45:11;;;;;;;10.52;2.83;;;7.50;99.90;;;;;;5021909;28;20075;-65
2022/10/09 07:47:37;;;;;;;7.75;2.53;;;7.60;99.90;;;;;;5022817;28;20042;-65
2022/10/09 07:50:03;;;;;;;3.38;2.33;;;7.60;99.90;;;;;;5026750;28;20034;-65
2022/10/09 07:52:29;;;;;;;7.57;2.67;;;7.70;99.90;;;;;;5028445;28;20034;-65
2022/10/09 07:54:54;;;;;;;17.25;3.53;;;7.80;99.90;;;;;;5028205;28;20032;-65
2022/10/09 07:57:20;;;;;;;11.73;2.22;;;7.90;99.90;;;;;;5020581;28;20025;-63
2022/10/09 07:59:46;;;;;;;4.25;2.28;;;8.00;99.90;;;;;;5016972;28;20060;-63
2022/10/09 08:02:11;;;;;;;7.32;2.03;;;8.10;99.90;;;;;;5025713;28;20108;-63
2022/10/09 08:04:37;;;;;;;8.48;2.45;;;8.20;99.90;;;;;;5022396;28;20029;-63
2022/10/09 08:07:02;;;;;;;6.80;2.70;;;8.30;99.90;;;;;;5029364;28;20100;-62
2022/10/09 08:09:28;;;;;;;9.73;2.92;;;8.40;99.90;;;;;;5020298;28;20072;-63
2022/10/09 08:11:54;;;;;;;6.55;2.00;;;8.50;99.90;;;;;;5022401;28;20481;-62
2022/10/09 08:14:19;;;;;;;6.88;2.58;;;8.60;99.90;;;;;;5029071;28;20029;-62
2022/10/09 08:16:46;;;;;;;9.85;1.73;;;8.80;99.90;;;;;;5040258;28;20401;-62
2022/10/09 08:19:11;;;;;;;16.75;3.00;;;8.90;99.90;;;;;;5010972;28;20017;-63
2022/10/09 08:21:37;;;;;;;6.05;2.38;;;9.00;99.90;;;;;;5028418;28;20137;-63
2022/10/09 08:24:03;;;;;;;6.47;2.17;;;9.10;99.90;;;;;;5024700;28;20018;-63
2022/10/09 08:26:29;;;;;;;5.35;2.40;;;9.30;99.90;;;;;;5030099;28;20030;-63
2022/10/09 08:29:00;;;;;;;8.48;2.25;;;9.40;99.90;;;;;;5028695;28;20053;-63
2022/10/09 08:31:27;;;;;;;4.95;2.47;;;9.50;99.90;;;;;;5022235;28;20028;-63
2022/10/09 08:33:58;;;;;;;5.68;2.50;;;9.60;99.90;;;;;;5025707;28;20044;-63
2022/10/09 08:36:24;;;;;;;8.85;2.70;;;9.70;99.90;;;;;;5014462;28;20106;-63
2022/10/09 08:38:51;;;;;;;9.13;2.40;;;9.80;99.90;;;;;;5021137;28;20037;-62
2022/10/09 08:41:25;;;;;;;5.05;2.47;;;9.90;99.90;;;;;;5013090;28;20428;-62
2022/10/09 08:44:01;;;;;;;11.75;3.00;;;10.00;99.90;;;;;;5019057;28;20484;-63
2022/10/09 08:47:04;;;;;;;5.18;2.20;;;10.20;99.90;;;;;;5027047;28;20403;-62
2022/10/09 08:49:46;;;;;;;5.07;2.35;;;10.30;99.90;;;;;;5025434;28;20501;-61
2022/10/09 08:52:20;;;;;;;5.60;1.98;;;10.50;99.90;;;;;;5021529;28;20424;-62
2022/10/09 08:54:46;;;;;;;9.35;2.03;;;10.60;99.90;;;;;;5027031;28;20037;-65
2022/10/09 08:57:14;;;;;;;8.38;2.47;;;10.70;99.90;;;;;;5022350;28;20030;-63
2022/10/09 08:59:41;;;;;;;5.95;1.52;;;10.90;99.90;;;;;;5015436;28;20528;-63
2022/10/09 09:02:34;;;;;;;4.85;1.65;;;11.40;99.90;;;;;;5027708;28;20386;-63
2022/10/09 09:05:19;;;;;;;12.25;2.42;;;12.40;99.90;;;;;;5029436;28;20393;-63
2022/10/09 09:08:08;;;;;;;6.78;2.05;;;13.30;99.90;;;;;;5016176;28;20385;-63
2022/10/09 09:10:41;;;;;;;4.13;1.83;;;13.70;99.90;;;;;;5025805;28;20030;-64
2022/10/09 09:13:31;;;;;;;4.88;1.67;;;14.30;99.90;;;;;;5022262;28;20524;-64
2022/10/09 09:16:13;;;;;;;4.10;1.95;;;14.80;99.90;;;;;;5022217;28;20103;-63
2022/10/09 09:19:05;;;;;;;4.85;1.20;;;15.60;99.90;;;;;;5019866;28;20075;-63
2022/10/09 09:21:48;;;;;;;4.28;1.45;;;16.00;99.90;;;;;;5023015;28;20040;-64
2022/10/09 09:24:38;;;;;;;4.43;1.48;;;16.50;99.20;;;;;;5013985;28;20022;-64
2022/10/09 09:27:25;;;;;;;4.30;1.25;;;16.70;99.80;;;;;;5021768;28;20040;-64
2022/10/09 09:30:28;;;;;;;3.65;1.08;;;16.60;96.70;;;;;;5015603;28;20030;-63
2022/10/09 09:32:58;;;;;;;5.32;1.15;;;16.70;97.40;;;;;;5022618;28;20026;-64
2022/10/09 09:35:45;;;;;;;7.05;1.50;;;16.70;95.50;;;;;;5026580;28;20055;-63
2022/10/09 09:38:12;;;;;;;3.50;1.30;;;16.50;96.30;;;;;;5018025;28;20025;-64
2022/10/09 09:40:38;;;;;;;5.85;1.52;;;16.70;95.90;;;;;;5020529;28;20519;-64
2022/10/09 09:43:14;;;;;;;4.10;1.40;;;17.00;96.40;;;;;;5017358;28;20038;-64
2022/10/09 09:45:40;;;;;;;2.78;1.35;;;17.20;94.70;;;;;;5016502;28;20029;-64
2022/10/09 09:48:16;;;;;;;9.10;2.17;;;17.40;94.50;;;;;;5025215;28;20082;-63
2022/10/09 09:50:44;;;;;;;5.30;1.10;;;17.30;95.40;;;;;;5025495;28;20076;-64
2022/10/09 09:53:25;;;;;;;2.97;1.50;;;17.60;95.30;;;;;;5011320;28;20033;-64
2022/10/09 09:55:52;;;;;;;3.55;1.20;;;17.50;93.20;;;;;;5021756;28;20034;-64
2022/10/09 09:58:19;;;;;;;3.55;1.33;;;17.20;93.30;;;;;;5026305;28;20021;-63
2022/10/09 10:01:02;;;;;;;6.28;1.38;;;16.90;95.00;;;;;;5015618;28;20136;-63
2022/10/09 10:03:29;;;;;;;3.85;1.52;;;16.50;95.20;;;;;;4997231;28;20054;-63
2022/10/09 10:05:55;;;;;;;3.67;1.10;;;16.40;96.30;;;;;;5024949;28;20083;-63
2022/10/09 10:08:24;;;;;;;8.38;1.50;;;16.20;96.90;;;;;;5028332;28;20033;-63
2022/10/09 10:10:55;;;;;;;3.25;2.22;;;16.10;97.00;;;;;;5032988;28;20025;-64
2022/10/09 10:13:39;;;;;;;5.50;1.83;;;15.90;96.70;;;;;;5022923;28;20354;-62
2022/10/09 10:16:06;;;;;;;;;;;15.50;96.90;;;;;;5027271;28;20018;-64
2022/10/09 10:18:41;;;;;;;2.78;1.23;;;15.30;96.70;;;;;;5025933;28;19909;-63
2022/10/09 10:21:15;;;;;;;3.03;1.45;;;15.20;96.80;;;;;;5028840;28;20040;-63
2022/10/09 10:23:53;;;;;;;;;;;15.20;97.50;;;;;;5022873;28;20493;-63
2022/10/09 10:26:22;;;;;;;3.58;1.45;;;15.20;98.40;;;;;;5030401;28;19909;-63
2022/10/09 10:28:59;;;;;;;3.10;1.30;;;15.30;97.40;;;;;;5028989;28;20029;-63
2022/10/09 10:32:07;;;;;;;3.72;1.67;;;15.20;97.40;;;;;;5044371;28;20032;-63
2022/10/09 10:34:59;;;;;;;5.20;1.50;;;15.20;97.70;;;;;;5011272;28;20045;-63
2022/10/09 10:37:37;;;;;;;9.13;1.77;;;15.40;97.50;;;;;;5023843;28;20048;-64
2022/10/09 10:40:36;;;;;;;7.45;1.55;;;15.50;98.20;;;;;;5021309;28;20056;-63
2022/10/09 10:43:08;;;;;;;3.25;1.38;;;15.50;97.10;;;;;;5019570;28;20045;-64
2022/10/09 10:45:51;;;;;;;4.20;1.55;;;15.70;97.60;;;;;;5025119;28;20022;-64
2022/10/09 10:48:24;;;;;;;8.85;1.60;;;15.70;96.80;;;;;;5020325;28;20524;-63
2022/10/09 10:51:15;;;;;;;4.90;1.83;;;15.70;96.90;;;;;;5017818;28;20385;-63
2022/10/09 10:53:51;;;;;;;6.47;1.58;;;15.80;97.10;;;;;;5001022;28;20248;-63
2022/10/09 10:56:30;;;;;;;2.28;1.02;;;15.80;96.20;;;;;;5017328;28;20021;-63
2022/10/09 10:59:17;;;;;;;2.42;1.67;;;15.90;95.80;;;;;;5020294;28;20039;-64
2022/10/09 11:01:51;;;;;;;3.35;1.92;;;15.90;95.60;;;;;;5035310;28;20052;-63
2022/10/09 11:04:39;;;;;;;10.57;2.13;;;15.80;95.70;;;;;;5002143;28;20046;-64
2022/10/09 11:07:13;;;;;;;5.97;1.70;;;15.90;94.60;;;;;;5024912;28;20025;-63
2022/10/09 11:09:55;;;;;;;5.53;2.20;;;15.70;95.30;;;;;;5025027;28;20067;-63
2022/10/09 11:12:45;;;;;;;10.45;1.63;;;15.70;93.60;;;;;;5017145;28;20025;-63
2022/10/09 11:15:18;;;;;;;4.55;1.08;;;15.60;93.80;;;;;;5024954;28;20136;-64
2022/10/09 11:17:46;;;;;;;5.60;1.73;;;15.60;93.90;;;;;;5019424;28;20037;-63
2022/10/09 11:20:48;;;;;;;10.60;1.42;;;15.60;94.30;;;;;;5019197;28;20447;-64
2022/10/09 11:23:42;;;;;;;2.28;1.33;;;15.70;95.50;;;;;;5029560;28;20087;-64
2022/10/09 11:26:25;;;;;;;1.70;1.13;;;15.70;93.60;;;;;;5017548;28;20021;-63
2022/10/09 11:28:59;;;;;;;3.25;1.05;;;15.80;92.20;;;;;;5023821;28;20033;-63
2022/10/09 11:31:33;;;;;;;2.67;1.13;;;15.80;92.60;;;;;;5011925;28;20028;-65
2022/10/09 11:34:08;;;;;;;3.58;1.20;;;15.90;91.40;;;;;;5025990;28;20037;-63
2022/10/09 11:36:40;;;;;;;4.95;1.38;;;15.90;91.90;;;;;;5025384;28;20574;-63
2022/10/09 11:39:24;;;;;;;5.88;1.58;;;15.90;92.50;;;;;;5022926;28;20025;-63
2022/10/09 11:41:52;;;;;;;7.83;1.50;;;16.00;92.60;;;;;;5017376;28;20129;-63
2022/10/09 11:44:24;;;;;;;3.63;1.60;;;15.90;92.40;;;;;;5030104;28;20021;-64
2022/10/09 11:47:24;;;;;;;4.55;0.90;;;16.00;92.90;;;;;;5031213;28;20395;-63
2022/10/09 11:50:04;;;;;;;2.83;1.50;;;16.00;93.30;;;;;;5021199;28;20036;-63
2022/10/09 11:52:57;;;;;;;1.63;0.85;;;16.00;92.60;;;;;;5021246;28;20040;-63
2022/10/09 11:55:29;;;;;;;7.50;1.55;;;16.00;92.60;;;;;;5028994;28;20507;-63
2022/10/09 11:58:24;;;;;;;5.13;1.45;;;15.90;93.00;;;;;;5015394;28;20030;-63
2022/10/09 12:00:55;;;;;;;7.00;1.25;;;15.90;91.80;;;;;;5021578;28;20040;-63
2022/10/09 12:03:33;;;;;;;3.65;1.13;;;15.90;91.60;;;;;;4996859;28;20041;-64
2022/10/09 12:06:18;;;;;;;3.33;0.93;;;15.90;91.50;;;;;;5024196;28;20044;-64
2022/10/09 12:09:06;;;;;;;1.65;0.95;;;15.90;90.80;;;;;;5020369;28;20120;-63
2022/10/09 12:11:33;;;;;;;1.25;0.82;;;15.80;91.70;;;;;;5035468;28;20037;-64
2022/10/09 12:14:02;;;;;;;3.72;1.23;;;15.90;90.40;;;;;;5023431;28;20034;-64
2022/10/09 12:16:40;;;;;;;1.98;1.42;;;15.90;92.00;;;;;;5025316;28;20029;-64
2022/10/09 12:19:17;;;;;;;6.47;1.10;;;15.90;91.30;;;;;;5023527;28;20401;-64
2022/10/09 12:22:00;;;;;;;1.63;1.27;;;15.80;88.00;;;;;;5023442;28;20029;-64
2022/10/09 12:24:37;;;;;;;3.20;1.10;;;15.80;87.30;;;;;;5026831;28;20392;-64
2022/10/09 12:27:05;;;;;;;3.40;1.35;;;15.80;86.50;;;;;;5022203;28;20025;-62
2022/10/09 12:29:42;;;;;;;1.23;1.08;;;15.70;87.90;;;;;;5012908;28;20030;-63
2022/10/09 12:32:22;;;;;;;2.20;1.17;;;15.80;89.20;;;;;;5022301;28;20516;-63
2022/10/09 12:34:49;;;;;;;3.30;1.42;;;15.80;89.50;;;;;;5036391;28;20033;-63
2022/10/09 12:37:31;;;;;;;2.58;0.95;;;15.80;90.00;;;;;;5020864;28;20041;-63
2022/10/09 12:40:07;;;;;;;1.63;1.17;;;15.80;87.30;;;;;;5025168;28;20052;-63
2022/10/09 12:42:33;;;;;;;2.42;0.80;;;15.80;87.70;;;;;;5019361;28;20109;-63
2022/10/09 12:44:59;;;;;;;1.55;1.00;;;15.80;87.90;;;;;;5019006;28;20112;-64
2022/10/09 12:47:28;;;;;;;1.38;0.90;;;15.80;88.00;;;;;;5021464;28;20021;-64
2022/10/09 12:50:11;;;;;;;3.70;1.10;;;15.80;89.20;;;;;;5020102;28;20033;-63
2022/10/09 12:52:54;;;;;;;2.95;0.90;;;15.80;87.50;;;;;;5017883;28;20029;-63
2022/10/09 12:55:28;;;;;;;3.75;1.10;;;15.80;85.60;;;;;;5027364;28;20040;-63
2022/10/09 12:57:57;;;;;;;1.20;0.90;;;15.80;84.70;;;;;;5018126;28;20025;-64
2022/10/09 13:00:22;;;;;;;1.85;0.93;;;15.80;84.20;;;;;;5024701;28;20112;-63
2022/10/09 13:02:48;;;;;;;4.30;1.35;;;15.80;84.70;;;;;;5005803;28;20761;-63
2022/10/09 13:05:14;;;;;;;2.00;1.20;;;15.80;86.70;;;;;;5023979;28;20078;-63
2022/10/09 13:07:40;;;;;;;2.22;1.20;;;15.80;87.80;;;;;;5013987;28;20825;-63
2022/10/09 13:10:15;;;;;;;1.27;0.80;;;15.80;88.80;;;;;;5021782;28;20384;-63